sensor_id;sensor_type;location;lat;lon;timestamp;pressure;altitude;pressure_sealevel;temperature;humidity
46778;BME280;32536;47.128;8.746;2024-03-02T00:00:19;90468.97;;;8.59;56.70
46778;BME280;32536;47.128;8.746;2024-03-02T00:03:03;90469.13;;;8.52;57.34
46778;BME280;32536;47.128;8.746;2024-03-02T00:05:30;90472.53;;;8.53;56.75
46778;BME280;32536;47.128;8.746;2024-03-02T00:07:58;90478.22;;;8.55;56.81
46778;BME280;32536;47.128;8.746;2024-03-02T00:10:26;90482.41;;;8.56;57.10
46778;BME280;32536;47.128;8.746;2024-03-02T00:12:57;90482.41;;;8.56;57.03
46778;BME280;32536;47.128;8.746;2024-03-02T00:18:11;90471.38;;;8.54;57.15
46778;BME280;32536;47.128;8.746;2024-03-02T00:20:40;90476.28;;;8.55;57.43
46778;BME280;32536;47.128;8.746;2024-03-02T00:23:08;90480.91;;;8.55;57.15
46778;BME280;32536;47.128;8.746;2024-03-02T00:25:39;90489.22;;;8.57;57.46
46778;BME280;32536;47.128;8.746;2024-03-02T00:28:31;90493.72;;;8.60;57.33
46778;BME280;32536;47.128;8.746;2024-03-02T00:33:36;90496.97;;;8.68;57.27
46778;BME280;32536;47.128;8.746;2024-03-02T00:36:14;90493.81;;;8.73;57.13
46778;BME280;32536;47.128;8.746;2024-03-02T00:38:50;90501.38;;;8.74;57.66
46778;BME280;32536;47.128;8.746;2024-03-02T00:43:58;90498.53;;;8.81;57.23
46778;BME280;32536;47.128;8.746;2024-03-02T00:46:33;90506.13;;;8.83;57.21
46778;BME280;32536;47.128;8.746;2024-03-02T00:49:05;90510.03;;;8.78;57.04
46778;BME280;32536;47.128;8.746;2024-03-02T00:51:39;90508.22;;;8.75;57.04
46778;BME280;32536;47.128;8.746;2024-03-02T00:54:08;90506.28;;;8.76;57.21
46778;BME280;32536;47.128;8.746;2024-03-02T00:56:35;90510.91;;;8.75;57.23
46778;BME280;32536;47.128;8.746;2024-03-02T00:59:02;90511.72;;;8.72;57.29
46778;BME280;32536;47.128;8.746;2024-03-02T01:01:29;90506.38;;;8.72;57.39
46778;BME280;32536;47.128;8.746;2024-03-02T01:03:55;90506.38;;;8.72;57.49
46778;BME280;32536;47.128;8.746;2024-03-02T01:06:22;90514.41;;;8.72;57.58
46778;BME280;32536;47.128;8.746;2024-03-02T01:08:49;90508.97;;;8.76;57.37
46778;BME280;32536;47.128;8.746;2024-03-02T01:11:17;90517.63;;;8.80;57.49
46778;BME280;32536;47.128;8.746;2024-03-02T01:13:45;90519.47;;;8.83;57.52
46778;BME280;32536;47.128;8.746;2024-03-02T01:16:12;90518.94;;;8.88;57.53
46778;BME280;32536;47.128;8.746;2024-03-02T01:18:39;90517.78;;;8.89;56.97
46778;BME280;32536;47.128;8.746;2024-03-02T01:21:06;90526.66;;;8.86;56.84
46778;BME280;32536;47.128;8.746;2024-03-02T01:23:32;90522.56;;;8.81;56.85
46778;BME280;32536;47.128;8.746;2024-03-02T01:25:59;90527.66;;;8.76;57.14
46778;BME280;32536;47.128;8.746;2024-03-02T01:28:26;90523.16;;;8.73;57.24
46778;BME280;32536;47.128;8.746;2024-03-02T01:30:53;90528.09;;;8.74;57.17
46778;BME280;32536;47.128;8.746;2024-03-02T01:33:20;90526.56;;;8.73;57.50
46778;BME280;32536;47.128;8.746;2024-03-02T01:35:47;90524.72;;;8.70;57.45
46778;BME280;32536;47.128;8.746;2024-03-02T01:38:14;90525.69;;;8.63;57.50
46778;BME280;32536;47.128;8.746;2024-03-02T01:40:41;90518.19;;;8.58;57.65
46778;BME280;32536;47.128;8.746;2024-03-02T01:43:10;90522.09;;;8.54;57.75
46778;BME280;32536;47.128;8.746;2024-03-02T01:45:37;90523.25;;;8.53;57.77
46778;BME280;32536;47.128;8.746;2024-03-02T01:48:07;90525.84;;;8.56;57.86
46778;BME280;32536;47.128;8.746;2024-03-02T01:50:34;90523.81;;;8.60;57.79
46778;BME280;32536;47.128;8.746;2024-03-02T01:53:01;90528.69;;;8.65;57.63
46778;BME280;32536;47.128;8.746;2024-03-02T01:55:28;90526.66;;;8.70;57.67
46778;BME280;32536;47.128;8.746;2024-03-02T01:57:56;90525.00;;;8.76;57.96
46778;BME280;32536;47.128;8.746;2024-03-02T02:00:23;90528.31;;;8.80;57.67
46778;BME280;32536;47.128;8.746;2024-03-02T02:03:10;90533.16;;;8.85;58.03
46778;BME280;32536;47.128;8.746;2024-03-02T02:05:37;90526.88;;;8.92;57.43
46778;BME280;32536;47.128;8.746;2024-03-02T02:08:04;90527.13;;;8.97;57.43
46778;BME280;32536;47.128;8.746;2024-03-02T02:10:31;90523.50;;;9.04;57.37
46778;BME280;32536;47.128;8.746;2024-03-02T02:12:58;90521.16;;;9.06;57.27
46778;BME280;32536;47.128;8.746;2024-03-02T02:15:29;90523.50;;;9.04;57.27
46778;BME280;32536;47.128;8.746;2024-03-02T02:17:57;90520.84;;;9.04;57.20
46778;BME280;32536;47.128;8.746;2024-03-02T02:20:25;90513.59;;;9.05;57.50
46778;BME280;32536;47.128;8.746;2024-03-02T02:23:02;90511.75;;;9.02;57.58
46778;BME280;32536;47.128;8.746;2024-03-02T02:25:29;90510.56;;;9.03;57.71
46778;BME280;32536;47.128;8.746;2024-03-02T02:27:57;90513.69;;;9.01;57.42
46778;BME280;32536;47.128;8.746;2024-03-02T02:30:32;90521.00;;;8.97;57.34
46778;BME280;32536;47.128;8.746;2024-03-02T02:32:59;90511.53;;;8.96;57.24
46778;BME280;32536;47.128;8.746;2024-03-02T02:35:26;90511.09;;;8.97;56.97
46778;BME280;32536;47.128;8.746;2024-03-02T02:37:54;90506.91;;;8.96;57.21
46778;BME280;32536;47.128;8.746;2024-03-02T02:40:22;90503.91;;;8.94;57.13
46778;BME280;32536;47.128;8.746;2024-03-02T02:42:48;90499.00;;;8.93;57.00
46778;BME280;32536;47.128;8.746;2024-03-02T02:45:17;90496.34;;;8.93;56.95
46778;BME280;32536;47.128;8.746;2024-03-02T02:47:44;90500.16;;;8.92;56.90
46778;BME280;32536;47.128;8.746;2024-03-02T02:50:12;90497.16;;;8.90;56.98
46778;BME280;32536;47.128;8.746;2024-03-02T02:52:40;90488.84;;;8.88;56.80
46778;BME280;32536;47.128;8.746;2024-03-02T02:55:09;90489.28;;;8.86;56.99
46778;BME280;32536;47.128;8.746;2024-03-02T02:57:39;90493.50;;;8.84;56.87
46778;BME280;32536;47.128;8.746;2024-03-02T03:00:12;90482.19;;;8.79;56.90
46778;BME280;32536;47.128;8.746;2024-03-02T03:03:14;90488.25;;;8.80;56.90
46778;BME280;32536;47.128;8.746;2024-03-02T03:05:41;90484.31;;;8.85;56.34
46778;BME280;32536;47.128;8.746;2024-03-02T03:08:07;90487.44;;;8.83;56.38
46778;BME280;32536;47.128;8.746;2024-03-02T03:10:34;90466.16;;;8.79;56.91
46778;BME280;32536;47.128;8.746;2024-03-02T03:13:01;90484.09;;;8.79;56.58
46778;BME280;32536;47.128;8.746;2024-03-02T03:15:28;90481.09;;;8.77;56.53
46778;BME280;32536;47.128;8.746;2024-03-02T03:17:54;90483.34;;;8.78;56.86
46778;BME280;32536;47.128;8.746;2024-03-02T03:20:21;90471.50;;;8.79;56.78
46778;BME280;32536;47.128;8.746;2024-03-02T03:22:49;90482.09;;;8.83;56.60
46778;BME280;32536;47.128;8.746;2024-03-02T03:25:16;90470.16;;;8.88;56.44
46778;BME280;32536;47.128;8.746;2024-03-02T03:27:42;90468.63;;;8.87;56.59
46778;BME280;32536;47.128;8.746;2024-03-02T03:30:10;90462.97;;;8.85;56.54
46778;BME280;32536;47.128;8.746;2024-03-02T03:32:37;90467.13;;;8.86;56.84
46778;BME280;32536;47.128;8.746;2024-03-02T03:35:05;90464.91;;;8.84;56.57
46778;BME280;32536;47.128;8.746;2024-03-02T03:37:32;90467.66;;;8.80;56.85
46778;BME280;32536;47.128;8.746;2024-03-02T03:40:02;90476.09;;;8.79;56.41
46778;BME280;32536;47.128;8.746;2024-03-02T03:42:36;90476.94;;;8.76;56.31
46778;BME280;32536;47.128;8.746;2024-03-02T03:45:03;90478.84;;;8.75;56.53
46778;BME280;32536;47.128;8.746;2024-03-02T03:47:31;90470.84;;;8.75;56.57
46778;BME280;32536;47.128;8.746;2024-03-02T03:49:58;90470.84;;;8.75;56.40
46778;BME280;32536;47.128;8.746;2024-03-02T03:52:25;90455.56;;;8.76;56.89
46778;BME280;32536;47.128;8.746;2024-03-02T03:54:52;90469.34;;;8.74;56.59
46778;BME280;32536;47.128;8.746;2024-03-02T03:57:18;90468.25;;;8.72;56.74
46778;BME280;32536;47.128;8.746;2024-03-02T03:59:45;90470.25;;;8.68;56.93
46778;BME280;32536;47.128;8.746;2024-03-02T04:02:12;90471.53;;;8.63;56.99
46778;BME280;32536;47.128;8.746;2024-03-02T04:04:39;90466.94;;;8.63;57.43
46778;BME280;32536;47.128;8.746;2024-03-02T04:07:06;90466.50;;;8.65;56.87
46778;BME280;32536;47.128;8.746;2024-03-02T04:09:32;90465.78;;;8.64;57.19
46778;BME280;32536;47.128;8.746;2024-03-02T04:11:59;90468.75;;;8.67;57.03
46778;BME280;32536;47.128;8.746;2024-03-02T04:14:26;90472.63;;;8.65;56.81
46778;BME280;32536;47.128;8.746;2024-03-02T04:16:53;90468.09;;;8.62;56.97
46778;BME280;32536;47.128;8.746;2024-03-02T04:19:19;90465.09;;;8.60;56.84
46778;BME280;32536;47.128;8.746;2024-03-02T04:21:46;90467.38;;;8.62;57.19
46778;BME280;32536;47.128;8.746;2024-03-02T04:24:13;90463.53;;;8.63;56.88
46778;BME280;32536;47.128;8.746;2024-03-02T04:26:40;90462.69;;;8.66;56.56
46778;BME280;32536;47.128;8.746;2024-03-02T04:29:06;90452.00;;;8.66;56.90
46778;BME280;32536;47.128;8.746;2024-03-02T04:31:33;90464.91;;;8.68;56.81
46778;BME280;32536;47.128;8.746;2024-03-02T04:34:00;90465.25;;;8.70;56.71
46778;BME280;32536;47.128;8.746;2024-03-02T04:36:26;90458.75;;;8.71;56.51
46778;BME280;32536;47.128;8.746;2024-03-02T04:38:53;90461.09;;;8.69;56.93
46778;BME280;32536;47.128;8.746;2024-03-02T04:41:20;90465.00;;;8.64;56.87
46778;BME280;32536;47.128;8.746;2024-03-02T04:43:47;90466.59;;;8.61;56.54
46778;BME280;32536;47.128;8.746;2024-03-02T04:46:13;90469.28;;;8.61;56.55
46778;BME280;32536;47.128;8.746;2024-03-02T04:48:41;90461.34;;;8.58;56.29
46778;BME280;32536;47.128;8.746;2024-03-02T04:51:07;90476.06;;;8.49;56.61
46778;BME280;32536;47.128;8.746;2024-03-02T04:53:34;90470.88;;;8.42;56.90
46778;BME280;32536;47.128;8.746;2024-03-02T04:56:01;90471.03;;;8.35;56.89
46778;BME280;32536;47.128;8.746;2024-03-02T04:58:46;90468.88;;;8.30;57.11
46778;BME280;32536;47.128;8.746;2024-03-02T05:01:13;90471.63;;;8.26;57.56
46778;BME280;32536;47.128;8.746;2024-03-02T05:03:39;90472.03;;;8.25;57.08
46778;BME280;32536;47.128;8.746;2024-03-02T05:06:06;90471.31;;;8.24;57.24
46778;BME280;32536;47.128;8.746;2024-03-02T05:08:34;90474.41;;;8.23;56.74
46778;BME280;32536;47.128;8.746;2024-03-02T05:11:01;90478.22;;;8.22;56.93
46778;BME280;32536;47.128;8.746;2024-03-02T05:13:47;90474.06;;;8.21;56.67
46778;BME280;32536;47.128;8.746;2024-03-02T05:16:14;90470.63;;;8.20;56.70
46778;BME280;32536;47.128;8.746;2024-03-02T05:18:41;90475.28;;;8.16;57.04
46778;BME280;32536;47.128;8.746;2024-03-02T05:21:07;90475.81;;;8.11;57.16
46778;BME280;32536;47.128;8.746;2024-03-02T05:23:34;90476.97;;;8.10;57.10
46778;BME280;32536;47.128;8.746;2024-03-02T05:26:01;90479.72;;;8.06;56.91
46778;BME280;32536;47.128;8.746;2024-03-02T05:28:28;90490.88;;;8.01;57.42
46778;BME280;32536;47.128;8.746;2024-03-02T05:30:55;90482.97;;;7.97;57.17
46778;BME280;32536;47.128;8.746;2024-03-02T05:33:22;90488.31;;;7.97;57.10
46778;BME280;32536;47.128;8.746;2024-03-02T05:35:48;90490.19;;;7.97;57.05
46778;BME280;32536;47.128;8.746;2024-03-02T05:38:19;90486.28;;;8.01;57.33
46778;BME280;32536;47.128;8.746;2024-03-02T05:40:45;90490.72;;;8.08;56.61
46778;BME280;32536;47.128;8.746;2024-03-02T05:43:12;90497.88;;;8.11;56.82
46778;BME280;32536;47.128;8.746;2024-03-02T05:45:39;90494.41;;;8.14;56.55
46778;BME280;32536;47.128;8.746;2024-03-02T05:48:07;90492.47;;;8.15;56.36
46778;BME280;32536;47.128;8.746;2024-03-02T05:50:35;90487.97;;;8.12;55.77
46778;BME280;32536;47.128;8.746;2024-03-02T05:53:02;90499.03;;;8.10;56.27
46778;BME280;32536;47.128;8.746;2024-03-02T05:55:28;90491.13;;;8.07;56.10
46778;BME280;32536;47.128;8.746;2024-03-02T05:57:55;90498.13;;;8.00;55.83
46778;BME280;32536;47.128;8.746;2024-03-02T06:00:22;90499.38;;;7.96;56.02
46778;BME280;32536;47.128;8.746;2024-03-02T06:02:49;90502.94;;;7.89;55.73
46778;BME280;32536;47.128;8.746;2024-03-02T06:05:15;90508.38;;;7.85;55.97
46778;BME280;32536;47.128;8.746;2024-03-02T06:07:43;90498.19;;;7.80;55.70
46778;BME280;32536;47.128;8.746;2024-03-02T06:10:10;90495.69;;;7.73;55.78
46778;BME280;32536;47.128;8.746;2024-03-02T06:12:37;90502.25;;;7.68;56.63
46778;BME280;32536;47.128;8.746;2024-03-02T06:15:04;90494.31;;;7.65;56.43
46778;BME280;32536;47.128;8.746;2024-03-02T06:17:31;90491.06;;;7.57;56.65
46778;BME280;32536;47.128;8.746;2024-03-02T06:19:58;90494.97;;;7.52;56.70
46778;BME280;32536;47.128;8.746;2024-03-02T06:22:25;90497.34;;;7.47;56.81
46778;BME280;32536;47.128;8.746;2024-03-02T06:24:52;90495.19;;;7.42;56.30
46778;BME280;32536;47.128;8.746;2024-03-02T06:27:19;90505.50;;;7.40;56.19
46778;BME280;32536;47.128;8.746;2024-03-02T06:29:45;90506.69;;;7.39;56.49
46778;BME280;32536;47.128;8.746;2024-03-02T06:32:12;90504.81;;;7.35;56.41
46778;BME280;32536;47.128;8.746;2024-03-02T06:34:39;90510.56;;;7.34;56.81
46778;BME280;32536;47.128;8.746;2024-03-02T06:37:05;90508.72;;;7.31;56.99
46778;BME280;32536;47.128;8.746;2024-03-02T06:39:32;90507.56;;;7.32;56.61
46778;BME280;32536;47.128;8.746;2024-03-02T06:42:00;90509.00;;;7.36;56.50
46778;BME280;32536;47.128;8.746;2024-03-02T06:44:27;90513.56;;;7.36;56.21
46778;BME280;32536;47.128;8.746;2024-03-02T06:46:54;90515.13;;;7.33;56.24
46778;BME280;32536;47.128;8.746;2024-03-02T06:49:20;90514.03;;;7.31;56.14
46778;BME280;32536;47.128;8.746;2024-03-02T06:51:47;90510.72;;;7.27;56.41
46778;BME280;32536;47.128;8.746;2024-03-02T06:54:14;90510.78;;;7.23;56.67
46778;BME280;32536;47.128;8.746;2024-03-02T06:56:40;90516.97;;;7.16;55.94
46778;BME280;32536;47.128;8.746;2024-03-02T06:59:07;90517.06;;;7.13;56.66
46778;BME280;32536;47.128;8.746;2024-03-02T07:01:34;90523.56;;;7.12;55.79
46778;BME280;32536;47.128;8.746;2024-03-02T07:04:01;90523.94;;;7.10;56.35
46778;BME280;32536;47.128;8.746;2024-03-02T07:06:27;90526.28;;;7.08;55.92
46778;BME280;32536;47.128;8.746;2024-03-02T07:08:54;90516.09;;;7.03;56.02
46778;BME280;32536;47.128;8.746;2024-03-02T07:11:21;90514.63;;;7.02;56.21
46778;BME280;32536;47.128;8.746;2024-03-02T07:13:47;90518.00;;;7.02;56.02
46778;BME280;32536;47.128;8.746;2024-03-02T07:16:14;90516.50;;;7.01;56.42
46778;BME280;32536;47.128;8.746;2024-03-02T07:18:54;90519.16;;;7.01;55.89
46778;BME280;32536;47.128;8.746;2024-03-02T07:21:22;90510.75;;;7.03;56.39
46778;BME280;32536;47.128;8.746;2024-03-02T07:23:49;90509.97;;;7.06;56.42
46778;BME280;32536;47.128;8.746;2024-03-02T07:26:16;90508.38;;;7.09;56.03
46778;BME280;32536;47.128;8.746;2024-03-02T07:28:46;90509.53;;;7.08;56.48
46778;BME280;32536;47.128;8.746;2024-03-02T07:31:16;90497.00;;;7.08;56.92
46778;BME280;32536;47.128;8.746;2024-03-02T07:33:44;90496.56;;;7.10;56.34
46778;BME280;32536;47.128;8.746;2024-03-02T07:36:12;90496.56;;;7.10;57.25
46778;BME280;32536;47.128;8.746;2024-03-02T07:38:39;90501.13;;;7.09;57.64
46778;BME280;32536;47.128;8.746;2024-03-02T07:41:07;90494.94;;;7.16;58.43
46778;BME280;32536;47.128;8.746;2024-03-02T07:43:34;90485.81;;;7.33;58.42
46778;BME280;32536;47.128;8.746;2024-03-02T07:46:01;90476.66;;;7.55;58.77
46778;BME280;32536;47.128;8.746;2024-03-02T07:48:28;90480.78;;;7.76;58.46
46778;BME280;32536;47.128;8.746;2024-03-02T07:50:56;90471.44;;;8.00;58.27
46778;BME280;32536;47.128;8.746;2024-03-02T07:53:23;90470.38;;;8.31;57.56
46778;BME280;32536;47.128;8.746;2024-03-02T07:55:50;90471.38;;;8.54;56.78
46778;BME280;32536;47.128;8.746;2024-03-02T07:58:16;90457.84;;;8.61;56.08
46778;BME280;32536;47.128;8.746;2024-03-02T08:00:45;90457.53;;;8.59;55.75
46778;BME280;32536;47.128;8.746;2024-03-02T08:03:32;90457.28;;;8.53;55.19
46778;BME280;32536;47.128;8.746;2024-03-02T08:06:00;90456.28;;;8.47;55.16
46778;BME280;32536;47.128;8.746;2024-03-02T08:08:26;90455.69;;;8.39;54.98
46778;BME280;32536;47.128;8.746;2024-03-02T08:10:53;90453.19;;;8.32;55.13
46778;BME280;32536;47.128;8.746;2024-03-02T08:13:20;90453.38;;;8.25;55.23
46778;BME280;32536;47.128;8.746;2024-03-02T08:15:47;90445.44;;;8.21;55.80
46778;BME280;32536;47.128;8.746;2024-03-02T08:18:13;90444.72;;;8.21;55.91
46778;BME280;32536;47.128;8.746;2024-03-02T08:20:40;90439.38;;;8.21;56.07
46778;BME280;32536;47.128;8.746;2024-03-02T08:23:07;90443.19;;;8.20;55.91
46778;BME280;32536;47.128;8.746;2024-03-02T08:25:34;90432.19;;;8.17;55.69
46778;BME280;32536;47.128;8.746;2024-03-02T08:28:01;90425.78;;;8.15;56.11
46778;BME280;32536;47.128;8.746;2024-03-02T08:30:27;90434.53;;;8.15;56.18
46778;BME280;32536;47.128;8.746;2024-03-02T08:32:54;90426.13;;;8.17;56.78
46778;BME280;32536;47.128;8.746;2024-03-02T08:35:21;90423.38;;;8.21;56.23
46778;BME280;32536;47.128;8.746;2024-03-02T08:37:48;90427.44;;;8.25;56.39
46778;BME280;32536;47.128;8.746;2024-03-02T08:40:15;90424.28;;;8.30;56.71
46778;BME280;32536;47.128;8.746;2024-03-02T08:42:42;90419.28;;;8.32;57.02
46778;BME280;32536;47.128;8.746;2024-03-02T08:45:09;90420.00;;;8.33;56.82
46778;BME280;32536;47.128;8.746;2024-03-02T08:47:36;90411.25;;;8.32;56.91
46778;BME280;32536;47.128;8.746;2024-03-02T08:50:03;90404.34;;;8.35;57.20
46778;BME280;32536;47.128;8.746;2024-03-02T08:52:30;90405.06;;;8.36;57.01
46778;BME280;32536;47.128;8.746;2024-03-02T08:54:57;90396.25;;;8.39;57.32
46778;BME280;32536;47.128;8.746;2024-03-02T08:57:24;90401.06;;;8.44;57.57
46778;BME280;32536;47.128;8.746;2024-03-02T08:59:50;90399.41;;;8.50;57.29
46778;BME280;32536;47.128;8.746;2024-03-02T09:02:17;90390.97;;;8.52;57.12
46778;BME280;32536;47.128;8.746;2024-03-02T09:04:44;90382.44;;;8.57;57.49
46778;BME280;32536;47.128;8.746;2024-03-02T09:07:11;90376.19;;;8.63;57.66
46778;BME280;32536;47.128;8.746;2024-03-02T09:09:37;90371.28;;;8.75;57.41
46778;BME280;32536;47.128;8.746;2024-03-02T09:12:05;90383.63;;;8.85;57.25
46778;BME280;32536;47.128;8.746;2024-03-02T09:14:33;90371.22;;;8.91;57.01
46778;BME280;32536;47.128;8.746;2024-03-02T09:17:02;90368.75;;;8.97;56.88
46778;BME280;32536;47.128;8.746;2024-03-02T09:19:29;90364.81;;;9.02;56.89
46778;BME280;32536;47.128;8.746;2024-03-02T09:21:56;90361.94;;;9.09;56.62
46778;BME280;32536;47.128;8.746;2024-03-02T09:24:24;90365.50;;;9.19;56.63
46778;BME280;32536;47.128;8.746;2024-03-02T09:26:51;90356.09;;;9.27;56.84
46778;BME280;32536;47.128;8.746;2024-03-02T09:29:17;90353.53;;;9.36;56.47
46778;BME280;32536;47.128;8.746;2024-03-02T09:31:46;90339.53;;;9.45;56.80
46778;BME280;32536;47.128;8.746;2024-03-02T09:34:13;90338.16;;;9.53;57.02
46778;BME280;32536;47.128;8.746;2024-03-02T09:36:40;90335.22;;;9.60;56.85
46778;BME280;32536;47.128;8.746;2024-03-02T09:39:07;90328.91;;;9.67;56.73
46778;BME280;32536;47.128;8.746;2024-03-02T09:41:38;90328.38;;;9.72;56.26
46778;BME280;32536;47.128;8.746;2024-03-02T09:44:05;90327.31;;;9.83;56.92
46778;BME280;32536;47.128;8.746;2024-03-02T09:46:32;90317.00;;;9.94;56.74
46778;BME280;32536;47.128;8.746;2024-03-02T09:48:59;90320.81;;;10.06;56.92
46778;BME280;32536;47.128;8.746;2024-03-02T09:51:26;90317.91;;;10.13;56.92
46778;BME280;32536;47.128;8.746;2024-03-02T09:53:54;90320.31;;;10.20;56.67
46778;BME280;32536;47.128;8.746;2024-03-02T09:56:21;90317.59;;;10.33;56.20
46778;BME280;32536;47.128;8.746;2024-03-02T09:58:48;90312.66;;;10.45;56.42
46778;BME280;32536;47.128;8.746;2024-03-02T10:01:15;90317.34;;;10.53;56.35
46778;BME280;32536;47.128;8.746;2024-03-02T10:03:44;90320.97;;;10.60;55.87
46778;BME280;32536;47.128;8.746;2024-03-02T10:06:23;90328.44;;;10.65;55.24
46778;BME280;32536;47.128;8.746;2024-03-02T10:08:51;90336.63;;;10.70;56.06
46778;BME280;32536;47.128;8.746;2024-03-02T10:11:31;90337.59;;;10.77;55.59
46778;BME280;32536;47.128;8.746;2024-03-02T10:14:10;90330.59;;;10.79;55.54
46778;BME280;32536;47.128;8.746;2024-03-02T10:19:19;90332.53;;;10.79;55.46
46778;BME280;32536;47.128;8.746;2024-03-02T10:21:48;90328.66;;;10.80;55.95
46778;BME280;32536;47.128;8.746;2024-03-02T10:24:16;90324.81;;;10.81;56.37
46778;BME280;32536;47.128;8.746;2024-03-02T10:26:44;90324.34;;;10.82;56.12
46778;BME280;32536;47.128;8.746;2024-03-02T10:29:12;90315.13;;;10.83;56.17
46778;BME280;32536;47.128;8.746;2024-03-02T10:31:41;90326.75;;;10.80;55.70
46778;BME280;32536;47.128;8.746;2024-03-02T10:34:10;90326.31;;;10.82;56.38
46778;BME280;32536;47.128;8.746;2024-03-02T10:36:41;90323.91;;;10.84;55.86
46778;BME280;32536;47.128;8.746;2024-03-02T10:39:09;90323.78;;;10.87;56.17
46778;BME280;32536;47.128;8.746;2024-03-02T10:41:37;90314.56;;;10.88;56.40
46778;BME280;32536;47.128;8.746;2024-03-02T10:44:08;90315.63;;;10.91;56.18
46778;BME280;32536;47.128;8.746;2024-03-02T10:46:36;90320.25;;;10.91;56.07
46778;BME280;32536;47.128;8.746;2024-03-02T10:49:05;90326.34;;;10.91;56.31
46778;BME280;32536;47.128;8.746;2024-03-02T10:51:34;90312.94;;;10.91;56.22
46778;BME280;32536;47.128;8.746;2024-03-02T10:54:03;90305.66;;;10.92;55.92
46778;BME280;32536;47.128;8.746;2024-03-02T10:56:30;90308.47;;;10.88;56.18
46778;BME280;32536;47.128;8.746;2024-03-02T11:02:03;90306.78;;;10.81;56.55
46778;BME280;32536;47.128;8.746;2024-03-02T11:04:32;90310.34;;;10.78;56.28
46778;BME280;32536;47.128;8.746;2024-03-02T11:07:07;90306.63;;;10.76;56.27
46778;BME280;32536;47.128;8.746;2024-03-02T11:09:41;90298.16;;;10.77;56.06
46778;BME280;32536;47.128;8.746;2024-03-02T11:12:24;90293.66;;;10.74;56.50
46778;BME280;32536;47.128;8.746;2024-03-02T11:14:56;90293.66;;;10.74;56.55
46778;BME280;32536;47.128;8.746;2024-03-02T11:17:23;90288.00;;;10.72;56.34
46778;BME280;32536;47.128;8.746;2024-03-02T11:19:50;90288.28;;;10.74;56.54
46778;BME280;32536;47.128;8.746;2024-03-02T11:22:18;90286.69;;;10.77;56.80
46778;BME280;32536;47.128;8.746;2024-03-02T11:24:49;90287.31;;;10.81;56.45
46778;BME280;32536;47.128;8.746;2024-03-02T11:27:58;90288.66;;;10.85;55.84
46778;BME280;32536;47.128;8.746;2024-03-02T11:33:06;90277.06;;;10.88;56.29
46778;BME280;32536;47.128;8.746;2024-03-02T11:35:37;90274.38;;;10.88;56.29
46778;BME280;32536;47.128;8.746;2024-03-02T11:38:14;90274.25;;;10.92;56.17
46778;BME280;32536;47.128;8.746;2024-03-02T11:40:41;90269.94;;;10.95;56.69
46778;BME280;32536;47.128;8.746;2024-03-02T11:43:08;90266.09;;;10.96;56.23
46778;BME280;32536;47.128;8.746;2024-03-02T11:45:36;90259.53;;;10.97;56.15
46778;BME280;32536;47.128;8.746;2024-03-02T11:48:06;90254.38;;;11.02;56.53
46778;BME280;32536;47.128;8.746;2024-03-02T11:50:36;90251.25;;;11.04;56.51
46778;BME280;32536;47.128;8.746;2024-03-02T11:53:12;90258.25;;;11.11;56.17
46778;BME280;32536;47.128;8.746;2024-03-02T11:55:39;90239.81;;;11.13;56.17
46778;BME280;32536;47.128;8.746;2024-03-02T11:58:07;90249.66;;;11.16;56.73
46778;BME280;32536;47.128;8.746;2024-03-02T12:00:34;90248.03;;;11.18;56.57
46778;BME280;32536;47.128;8.746;2024-03-02T12:03:04;90241.16;;;11.17;56.59
46778;BME280;32536;47.128;8.746;2024-03-02T12:05:32;90238.03;;;11.19;56.08
46778;BME280;32536;47.128;8.746;2024-03-02T12:08:02;90235.81;;;11.17;56.65
46778;BME280;32536;47.128;8.746;2024-03-02T12:10:31;90237.75;;;11.17;56.19
46778;BME280;32536;47.128;8.746;2024-03-02T12:13:02;90238.03;;;11.19;56.47
46778;BME280;32536;47.128;8.746;2024-03-02T12:15:31;90239.06;;;11.21;56.33
46778;BME280;32536;47.128;8.746;2024-03-02T12:18:05;90233.72;;;11.21;56.67
46778;BME280;32536;47.128;8.746;2024-03-02T12:20:33;90231.34;;;11.24;56.57
46778;BME280;32536;47.128;8.746;2024-03-02T12:23:04;90228.97;;;11.26;56.42
46778;BME280;32536;47.128;8.746;2024-03-02T12:25:32;90225.13;;;11.27;56.12
46778;BME280;32536;47.128;8.746;2024-03-02T12:28:00;90227.78;;;11.27;56.03
46778;BME280;32536;47.128;8.746;2024-03-02T12:30:31;90219.44;;;11.25;56.15
46778;BME280;32536;47.128;8.746;2024-03-02T12:33:01;90213.50;;;11.30;56.10
46778;BME280;32536;47.128;8.746;2024-03-02T12:35:28;90211.44;;;11.34;56.22
46778;BME280;32536;47.128;8.746;2024-03-02T12:37:55;90211.72;;;11.36;56.29
46778;BME280;32536;47.128;8.746;2024-03-02T12:40:22;90207.53;;;11.35;56.20
46778;BME280;32536;47.128;8.746;2024-03-02T12:42:49;90192.50;;;11.37;56.35
46778;BME280;32536;47.128;8.746;2024-03-02T12:45:17;90198.94;;;11.40;56.42
46778;BME280;32536;47.128;8.746;2024-03-02T12:47:50;90199.97;;;11.43;56.33
46778;BME280;32536;47.128;8.746;2024-03-02T12:50:20;90191.63;;;11.41;56.58
46778;BME280;32536;47.128;8.746;2024-03-02T12:52:54;90201.16;;;11.42;56.61
46778;BME280;32536;47.128;8.746;2024-03-02T12:55:21;90194.16;;;11.44;55.84
46778;BME280;32536;47.128;8.746;2024-03-02T12:57:52;90194.44;;;11.37;56.25
46778;BME280;32536;47.128;8.746;2024-03-02T13:00:20;90185.38;;;11.34;56.13
46778;BME280;32536;47.128;8.746;2024-03-02T13:02:47;90183.28;;;11.38;56.90
46778;BME280;32536;47.128;8.746;2024-03-02T13:05:16;90178.38;;;11.46;56.71
46778;BME280;32536;47.128;8.746;2024-03-02T13:07:43;90174.19;;;11.54;56.54
46778;BME280;32536;47.128;8.746;2024-03-02T13:10:12;90185.69;;;11.64;56.47
46778;BME280;32536;47.128;8.746;2024-03-02T13:12:39;90178.38;;;11.74;56.66
46778;BME280;32536;47.128;8.746;2024-03-02T13:15:06;90173.94;;;11.80;56.25
46778;BME280;32536;47.128;8.746;2024-03-02T13:17:36;90177.66;;;11.83;56.62
46778;BME280;32536;47.128;8.746;2024-03-02T13:20:03;90173.78;;;11.84;56.34
46778;BME280;32536;47.128;8.746;2024-03-02T13:22:33;90172.00;;;11.81;56.35
46778;BME280;32536;47.128;8.746;2024-03-02T13:25:00;90169.16;;;11.84;56.23
46778;BME280;32536;47.128;8.746;2024-03-02T13:27:30;90169.91;;;11.94;56.14
46778;BME280;32536;47.128;8.746;2024-03-02T13:30:01;90169.00;;;12.07;56.62